Terminal Aerodrome Forecast
Issued by NWS Cleveland, OH

Home | Current Version | Previous Version | Text Only | Print | Product List | Glossary Off
Versions: 1 2 3 4 5 6 7 8 9 10 11 12 13 14 15 16 17 18 19

000
FTUS41 KCLE 141000 AAA
TAFMFD
TAF AMD
KMFD 141017Z 1410/1506 00000KT P6SM FEW040 SCT250
      TEMPO 1411/1413 4SM BR
     FM141800 14004KT P6SM SCT035=

USA.gov is the U.S. government's official web portal to all federal, state and local government web resources and services.